sensor_id;sensor_type;location;lat;lon;timestamp;temperature;humidity
57026;DHT22;43961;52.940;6.834;2024-02-04T00:00:34;6.70;99.90
57026;DHT22;43961;52.940;6.834;2024-02-04T00:03:00;6.70;99.90
57026;DHT22;43961;52.940;6.834;2024-02-04T00:05:26;6.70;99.90
57026;DHT22;43961;52.940;6.834;2024-02-04T00:07:52;6.70;99.90
57026;DHT22;43961;52.940;6.834;2024-02-04T00:10:18;6.60;99.90
57026;DHT22;43961;52.940;6.834;2024-02-04T00:12:44;6.60;99.90
57026;DHT22;43961;52.940;6.834;2024-02-04T00:15:10;6.60;99.90
57026;DHT22;43961;52.940;6.834;2024-02-04T00:17:35;6.60;99.90
57026;DHT22;43961;52.940;6.834;2024-02-04T00:20:03;6.50;99.90
57026;DHT22;43961;52.940;6.834;2024-02-04T00:22:31;6.50;99.90
57026;DHT22;43961;52.940;6.834;2024-02-04T00:24:57;6.40;99.90
57026;DHT22;43961;52.940;6.834;2024-02-04T00:27:27;6.40;99.90
57026;DHT22;43961;52.940;6.834;2024-02-04T00:29:53;6.40;99.90
57026;DHT22;43961;52.940;6.834;2024-02-04T00:32:18;6.40;99.90
57026;DHT22;43961;52.940;6.834;2024-02-04T00:34:44;6.40;99.90
57026;DHT22;43961;52.940;6.834;2024-02-04T00:37:09;6.30;99.90
57026;DHT22;43961;52.940;6.834;2024-02-04T00:39:35;6.30;99.90
57026;DHT22;43961;52.940;6.834;2024-02-04T00:42:01;6.30;99.90
57026;DHT22;43961;52.940;6.834;2024-02-04T00:44:26;6.30;99.90
57026;DHT22;43961;52.940;6.834;2024-02-04T00:46:52;6.20;99.90
57026;DHT22;43961;52.940;6.834;2024-02-04T00:49:17;6.30;99.90
57026;DHT22;43961;52.940;6.834;2024-02-04T00:51:43;6.30;99.90
57026;DHT22;43961;52.940;6.834;2024-02-04T00:54:09;6.20;99.90
57026;DHT22;43961;52.940;6.834;2024-02-04T00:56:35;6.20;99.90
57026;DHT22;43961;52.940;6.834;2024-02-04T00:59:00;6.20;99.90
57026;DHT22;43961;52.940;6.834;2024-02-04T01:01:26;6.20;99.90
57026;DHT22;43961;52.940;6.834;2024-02-04T01:03:52;6.20;99.90
57026;DHT22;43961;52.940;6.834;2024-02-04T01:06:17;6.20;99.90
57026;DHT22;43961;52.940;6.834;2024-02-04T01:08:43;6.20;99.90
57026;DHT22;43961;52.940;6.834;2024-02-04T01:11:08;6.20;99.90
57026;DHT22;43961;52.940;6.834;2024-02-04T01:13:34;6.20;99.90
57026;DHT22;43961;52.940;6.834;2024-02-04T01:16:00;6.20;99.90
57026;DHT22;43961;52.940;6.834;2024-02-04T01:18:25;6.20;99.90
57026;DHT22;43961;52.940;6.834;2024-02-04T01:20:53;6.20;99.90
57026;DHT22;43961;52.940;6.834;2024-02-04T01:23:18;6.10;99.90
57026;DHT22;43961;52.940;6.834;2024-02-04T01:25:46;6.10;99.90
57026;DHT22;43961;52.940;6.834;2024-02-04T01:28:12;6.10;99.90
57026;DHT22;43961;52.940;6.834;2024-02-04T01:30:38;6.10;99.90
57026;DHT22;43961;52.940;6.834;2024-02-04T01:33:05;6.00;99.90
57026;DHT22;43961;52.940;6.834;2024-02-04T01:35:30;6.00;99.90
57026;DHT22;43961;52.940;6.834;2024-02-04T01:37:56;6.00;99.90
57026;DHT22;43961;52.940;6.834;2024-02-04T01:40:21;6.00;99.90
57026;DHT22;43961;52.940;6.834;2024-02-04T01:42:47;5.90;99.90
57026;DHT22;43961;52.940;6.834;2024-02-04T01:45:13;5.90;99.90
57026;DHT22;43961;52.940;6.834;2024-02-04T01:47:39;5.90;99.90
57026;DHT22;43961;52.940;6.834;2024-02-04T01:50:05;5.90;99.90
57026;DHT22;43961;52.940;6.834;2024-02-04T01:52:33;5.80;99.90
57026;DHT22;43961;52.940;6.834;2024-02-04T01:55:01;5.90;99.90
57026;DHT22;43961;52.940;6.834;2024-02-04T01:57:28;5.80;99.90
57026;DHT22;43961;52.940;6.834;2024-02-04T01:59:55;5.80;99.90
57026;DHT22;43961;52.940;6.834;2024-02-04T02:02:22;5.80;99.90
57026;DHT22;43961;52.940;6.834;2024-02-04T02:04:48;5.70;99.90
57026;DHT22;43961;52.940;6.834;2024-02-04T02:07:15;5.70;99.90
57026;DHT22;43961;52.940;6.834;2024-02-04T02:09:46;5.70;99.90
57026;DHT22;43961;52.940;6.834;2024-02-04T02:12:16;5.70;99.90
57026;DHT22;43961;52.940;6.834;2024-02-04T02:14:48;5.70;99.90
57026;DHT22;43961;52.940;6.834;2024-02-04T02:17:17;5.70;99.90
57026;DHT22;43961;52.940;6.834;2024-02-04T02:19:59;5.70;99.90
57026;DHT22;43961;52.940;6.834;2024-02-04T02:22:48;5.60;99.90
57026;DHT22;43961;52.940;6.834;2024-02-04T02:25:20;5.60;99.90
57026;DHT22;43961;52.940;6.834;2024-02-04T02:27:59;5.60;99.90
57026;DHT22;43961;52.940;6.834;2024-02-04T02:30:25;5.60;99.90
57026;DHT22;43961;52.940;6.834;2024-02-04T02:32:51;5.50;99.90
57026;DHT22;43961;52.940;6.834;2024-02-04T02:35:16;5.50;99.90
57026;DHT22;43961;52.940;6.834;2024-02-04T02:37:55;5.50;99.90
57026;DHT22;43961;52.940;6.834;2024-02-04T02:40:30;5.50;99.90
57026;DHT22;43961;52.940;6.834;2024-02-04T02:43:01;5.50;99.90
57026;DHT22;43961;52.940;6.834;2024-02-04T02:45:27;5.50;99.90
57026;DHT22;43961;52.940;6.834;2024-02-04T02:47:54;5.60;99.90
57026;DHT22;43961;52.940;6.834;2024-02-04T02:50:21;5.50;99.90
57026;DHT22;43961;52.940;6.834;2024-02-04T02:52:47;5.50;99.90
57026;DHT22;43961;52.940;6.834;2024-02-04T02:55:13;5.50;99.90
57026;DHT22;43961;52.940;6.834;2024-02-04T02:57:38;5.50;99.90
57026;DHT22;43961;52.940;6.834;2024-02-04T03:00:04;5.50;99.90
57026;DHT22;43961;52.940;6.834;2024-02-04T03:02:32;5.50;99.90
57026;DHT22;43961;52.940;6.834;2024-02-04T03:04:57;5.50;99.90
57026;DHT22;43961;52.940;6.834;2024-02-04T03:07:23;5.40;99.90
57026;DHT22;43961;52.940;6.834;2024-02-04T03:09:49;5.40;99.90
57026;DHT22;43961;52.940;6.834;2024-02-04T03:12:14;5.40;99.90
57026;DHT22;43961;52.940;6.834;2024-02-04T03:14:40;5.40;99.90
57026;DHT22;43961;52.940;6.834;2024-02-04T03:17:05;5.40;99.90
57026;DHT22;43961;52.940;6.834;2024-02-04T03:19:31;5.40;99.90
57026;DHT22;43961;52.940;6.834;2024-02-04T03:21:57;5.40;99.90
57026;DHT22;43961;52.940;6.834;2024-02-04T03:24:22;5.40;99.90
57026;DHT22;43961;52.940;6.834;2024-02-04T03:26:48;5.40;99.90
57026;DHT22;43961;52.940;6.834;2024-02-04T03:29:14;5.40;99.90
57026;DHT22;43961;52.940;6.834;2024-02-04T03:31:39;5.40;99.90
57026;DHT22;43961;52.940;6.834;2024-02-04T03:34:05;5.40;99.90
57026;DHT22;43961;52.940;6.834;2024-02-04T03:36:31;5.30;99.90
57026;DHT22;43961;52.940;6.834;2024-02-04T03:38:57;5.40;99.90
57026;DHT22;43961;52.940;6.834;2024-02-04T03:41:22;5.40;99.90
57026;DHT22;43961;52.940;6.834;2024-02-04T03:43:48;5.30;99.90
57026;DHT22;43961;52.940;6.834;2024-02-04T03:46:17;5.40;99.90
57026;DHT22;43961;52.940;6.834;2024-02-04T03:48:43;5.40;99.90
57026;DHT22;43961;52.940;6.834;2024-02-04T03:51:15;5.40;99.90
57026;DHT22;43961;52.940;6.834;2024-02-04T03:53:41;5.40;99.90
57026;DHT22;43961;52.940;6.834;2024-02-04T03:56:07;5.40;99.90
57026;DHT22;43961;52.940;6.834;2024-02-04T03:58:33;5.40;99.90
57026;DHT22;43961;52.940;6.834;2024-02-04T04:00:58;5.50;99.90
57026;DHT22;43961;52.940;6.834;2024-02-04T04:03:26;5.50;99.90
57026;DHT22;43961;52.940;6.834;2024-02-04T04:05:53;5.50;99.90
57026;DHT22;43961;52.940;6.834;2024-02-04T04:08:19;5.50;99.90
57026;DHT22;43961;52.940;6.834;2024-02-04T04:10:45;5.60;99.90
57026;DHT22;43961;52.940;6.834;2024-02-04T04:13:10;5.60;99.90
57026;DHT22;43961;52.940;6.834;2024-02-04T04:15:37;5.60;99.90
57026;DHT22;43961;52.940;6.834;2024-02-04T04:18:03;5.70;99.90
57026;DHT22;43961;52.940;6.834;2024-02-04T04:20:28;5.70;99.90
57026;DHT22;43961;52.940;6.834;2024-02-04T04:22:54;5.70;99.90
57026;DHT22;43961;52.940;6.834;2024-02-04T04:25:27;5.70;99.90
57026;DHT22;43961;52.940;6.834;2024-02-04T04:27:53;5.70;99.90
57026;DHT22;43961;52.940;6.834;2024-02-04T04:30:21;5.70;99.90
57026;DHT22;43961;52.940;6.834;2024-02-04T04:32:46;5.80;99.90
57026;DHT22;43961;52.940;6.834;2024-02-04T04:35:12;5.80;99.90
57026;DHT22;43961;52.940;6.834;2024-02-04T04:37:37;5.80;99.90
57026;DHT22;43961;52.940;6.834;2024-02-04T04:40:03;5.80;99.90
57026;DHT22;43961;52.940;6.834;2024-02-04T04:42:29;5.80;99.90
57026;DHT22;43961;52.940;6.834;2024-02-04T04:44:55;5.80;99.90
57026;DHT22;43961;52.940;6.834;2024-02-04T04:47:20;5.90;99.90
57026;DHT22;43961;52.940;6.834;2024-02-04T04:49:46;5.90;99.90
57026;DHT22;43961;52.940;6.834;2024-02-04T04:52:11;5.90;99.90
57026;DHT22;43961;52.940;6.834;2024-02-04T04:54:38;5.90;99.90
57026;DHT22;43961;52.940;6.834;2024-02-04T04:57:04;5.90;99.90
57026;DHT22;43961;52.940;6.834;2024-02-04T04:59:29;5.90;99.90
57026;DHT22;43961;52.940;6.834;2024-02-04T05:01:55;5.90;99.90
57026;DHT22;43961;52.940;6.834;2024-02-04T05:04:20;5.90;99.90
57026;DHT22;43961;52.940;6.834;2024-02-04T05:06:51;5.90;99.90
57026;DHT22;43961;52.940;6.834;2024-02-04T05:09:16;5.90;99.90
57026;DHT22;43961;52.940;6.834;2024-02-04T05:11:42;5.90;99.90
57026;DHT22;43961;52.940;6.834;2024-02-04T05:14:08;5.90;99.90
57026;DHT22;43961;52.940;6.834;2024-02-04T05:16:34;5.90;99.90
57026;DHT22;43961;52.940;6.834;2024-02-04T05:19:01;5.90;99.90
57026;DHT22;43961;52.940;6.834;2024-02-04T05:21:27;6.00;99.90
57026;DHT22;43961;52.940;6.834;2024-02-04T05:23:53;6.00;99.90
57026;DHT22;43961;52.940;6.834;2024-02-04T05:26:18;6.00;99.90
57026;DHT22;43961;52.940;6.834;2024-02-04T05:28:44;6.00;99.90
57026;DHT22;43961;52.940;6.834;2024-02-04T05:31:10;6.00;99.90
57026;DHT22;43961;52.940;6.834;2024-02-04T05:33:35;6.00;99.90
57026;DHT22;43961;52.940;6.834;2024-02-04T05:36:01;6.00;99.90
57026;DHT22;43961;52.940;6.834;2024-02-04T05:38:27;6.00;99.90
57026;DHT22;43961;52.940;6.834;2024-02-04T05:40:52;6.00;99.90
57026;DHT22;43961;52.940;6.834;2024-02-04T05:43:18;6.00;99.90
57026;DHT22;43961;52.940;6.834;2024-02-04T05:45:43;6.00;99.90
57026;DHT22;43961;52.940;6.834;2024-02-04T05:48:10;6.00;99.90
57026;DHT22;43961;52.940;6.834;2024-02-04T05:50:36;6.00;99.90
57026;DHT22;43961;52.940;6.834;2024-02-04T05:53:02;6.10;99.90
57026;DHT22;43961;52.940;6.834;2024-02-04T05:55:29;6.10;99.90
57026;DHT22;43961;52.940;6.834;2024-02-04T05:57:56;6.10;99.90
57026;DHT22;43961;52.940;6.834;2024-02-04T06:00:23;6.10;99.90
57026;DHT22;43961;52.940;6.834;2024-02-04T06:02:49;6.10;99.90
57026;DHT22;43961;52.940;6.834;2024-02-04T06:05:14;6.10;99.90
57026;DHT22;43961;52.940;6.834;2024-02-04T06:07:42;6.10;99.90
57026;DHT22;43961;52.940;6.834;2024-02-04T06:10:11;6.10;99.90
57026;DHT22;43961;52.940;6.834;2024-02-04T06:12:37;6.10;99.90
57026;DHT22;43961;52.940;6.834;2024-02-04T06:15:11;6.10;99.90
57026;DHT22;43961;52.940;6.834;2024-02-04T06:17:37;6.10;99.90
57026;DHT22;43961;52.940;6.834;2024-02-04T06:20:03;6.10;99.90
57026;DHT22;43961;52.940;6.834;2024-02-04T06:22:28;6.10;99.90
57026;DHT22;43961;52.940;6.834;2024-02-04T06:24:54;6.10;99.90
57026;DHT22;43961;52.940;6.834;2024-02-04T06:27:19;6.10;99.90
57026;DHT22;43961;52.940;6.834;2024-02-04T06:29:45;6.10;99.90
57026;DHT22;43961;52.940;6.834;2024-02-04T06:32:11;6.10;99.90
57026;DHT22;43961;52.940;6.834;2024-02-04T06:34:37;6.10;99.90
57026;DHT22;43961;52.940;6.834;2024-02-04T06:37:03;6.10;99.90
57026;DHT22;43961;52.940;6.834;2024-02-04T06:39:28;6.10;99.90
57026;DHT22;43961;52.940;6.834;2024-02-04T06:41:54;6.10;99.90
57026;DHT22;43961;52.940;6.834;2024-02-04T06:44:19;6.20;99.90
57026;DHT22;43961;52.940;6.834;2024-02-04T06:46:45;6.10;99.90
57026;DHT22;43961;52.940;6.834;2024-02-04T06:49:33;6.20;99.90
57026;DHT22;43961;52.940;6.834;2024-02-04T06:51:58;6.20;99.90
57026;DHT22;43961;52.940;6.834;2024-02-04T06:54:41;6.20;99.90
57026;DHT22;43961;52.940;6.834;2024-02-04T06:57:07;6.20;99.90
57026;DHT22;43961;52.940;6.834;2024-02-04T06:59:33;6.20;99.90
57026;DHT22;43961;52.940;6.834;2024-02-04T07:01:58;6.20;99.90
57026;DHT22;43961;52.940;6.834;2024-02-04T07:04:24;6.30;99.90
57026;DHT22;43961;52.940;6.834;2024-02-04T07:06:50;6.30;99.90
57026;DHT22;43961;52.940;6.834;2024-02-04T07:09:18;6.30;99.90
57026;DHT22;43961;52.940;6.834;2024-02-04T07:11:43;6.30;99.90
57026;DHT22;43961;52.940;6.834;2024-02-04T07:14:09;6.30;99.90
57026;DHT22;43961;52.940;6.834;2024-02-04T07:16:35;6.40;99.90
57026;DHT22;43961;52.940;6.834;2024-02-04T07:19:00;6.40;99.90
57026;DHT22;43961;52.940;6.834;2024-02-04T07:21:27;6.40;99.90
57026;DHT22;43961;52.940;6.834;2024-02-04T07:23:52;6.40;99.90
57026;DHT22;43961;52.940;6.834;2024-02-04T07:26:18;6.40;99.90
57026;DHT22;43961;52.940;6.834;2024-02-04T07:28:43;6.50;99.90
57026;DHT22;43961;52.940;6.834;2024-02-04T07:31:10;6.50;99.90
57026;DHT22;43961;52.940;6.834;2024-02-04T07:33:35;6.50;99.90
57026;DHT22;43961;52.940;6.834;2024-02-04T07:36:02;6.50;99.90
57026;DHT22;43961;52.940;6.834;2024-02-04T07:38:28;6.60;99.90
57026;DHT22;43961;52.940;6.834;2024-02-04T07:40:53;6.50;99.90
57026;DHT22;43961;52.940;6.834;2024-02-04T07:43:21;6.60;99.90
57026;DHT22;43961;52.940;6.834;2024-02-04T07:45:46;6.60;99.90
57026;DHT22;43961;52.940;6.834;2024-02-04T07:48:12;6.60;99.90
57026;DHT22;43961;52.940;6.834;2024-02-04T07:50:38;6.60;99.90
57026;DHT22;43961;52.940;6.834;2024-02-04T07:53:04;6.60;99.90
57026;DHT22;43961;52.940;6.834;2024-02-04T07:55:30;6.60;99.90
57026;DHT22;43961;52.940;6.834;2024-02-04T07:57:56;6.70;99.90
57026;DHT22;43961;52.940;6.834;2024-02-04T08:00:22;6.70;99.90
57026;DHT22;43961;52.940;6.834;2024-02-04T08:02:47;6.70;99.90
57026;DHT22;43961;52.940;6.834;2024-02-04T08:05:13;6.70;99.90
57026;DHT22;43961;52.940;6.834;2024-02-04T08:07:39;6.80;99.90
57026;DHT22;43961;52.940;6.834;2024-02-04T08:10:05;6.80;99.90
57026;DHT22;43961;52.940;6.834;2024-02-04T08:12:31;6.80;99.90
57026;DHT22;43961;52.940;6.834;2024-02-04T08:14:57;6.80;99.90
57026;DHT22;43961;52.940;6.834;2024-02-04T08:17:22;6.80;99.90
57026;DHT22;43961;52.940;6.834;2024-02-04T08:19:48;6.90;99.90
57026;DHT22;43961;52.940;6.834;2024-02-04T08:22:16;6.90;99.90
57026;DHT22;43961;52.940;6.834;2024-02-04T08:24:43;6.90;99.90
57026;DHT22;43961;52.940;6.834;2024-02-04T08:27:09;7.00;99.90
57026;DHT22;43961;52.940;6.834;2024-02-04T08:29:35;7.00;99.90
57026;DHT22;43961;52.940;6.834;2024-02-04T08:32:00;7.00;99.90
57026;DHT22;43961;52.940;6.834;2024-02-04T08:34:26;7.10;99.90
57026;DHT22;43961;52.940;6.834;2024-02-04T08:36:52;7.10;99.90
57026;DHT22;43961;52.940;6.834;2024-02-04T08:39:18;7.10;99.90
57026;DHT22;43961;52.940;6.834;2024-02-04T08:41:44;7.20;99.90
57026;DHT22;43961;52.940;6.834;2024-02-04T08:44:09;7.20;99.90
57026;DHT22;43961;52.940;6.834;2024-02-04T08:46:35;7.20;99.90
57026;DHT22;43961;52.940;6.834;2024-02-04T08:49:01;7.20;99.90
57026;DHT22;43961;52.940;6.834;2024-02-04T08:51:27;7.30;99.90
57026;DHT22;43961;52.940;6.834;2024-02-04T08:53:53;7.30;99.90
57026;DHT22;43961;52.940;6.834;2024-02-04T08:56:18;7.40;99.90
57026;DHT22;43961;52.940;6.834;2024-02-04T08:58:45;7.40;99.90
57026;DHT22;43961;52.940;6.834;2024-02-04T09:01:11;7.50;99.90
57026;DHT22;43961;52.940;6.834;2024-02-04T09:03:36;7.50;99.90
57026;DHT22;43961;52.940;6.834;2024-02-04T09:06:02;7.50;99.90
57026;DHT22;43961;52.940;6.834;2024-02-04T09:08:28;7.60;99.90
57026;DHT22;43961;52.940;6.834;2024-02-04T09:10:54;7.60;99.90
57026;DHT22;43961;52.940;6.834;2024-02-04T09:13:19;7.70;99.90
57026;DHT22;43961;52.940;6.834;2024-02-04T09:15:45;7.70;99.90
57026;DHT22;43961;52.940;6.834;2024-02-04T09:18:10;7.80;99.90
57026;DHT22;43961;52.940;6.834;2024-02-04T09:20:37;7.80;99.90
57026;DHT22;43961;52.940;6.834;2024-02-04T09:23:03;7.80;99.90
57026;DHT22;43961;52.940;6.834;2024-02-04T09:25:30;7.80;99.90
57026;DHT22;43961;52.940;6.834;2024-02-04T09:27:56;7.90;99.90
57026;DHT22;43961;52.940;6.834;2024-02-04T09:30:21;7.90;99.90
57026;DHT22;43961;52.940;6.834;2024-02-04T09:32:47;8.00;99.90
57026;DHT22;43961;52.940;6.834;2024-02-04T09:35:14;8.00;99.90
57026;DHT22;43961;52.940;6.834;2024-02-04T09:37:39;8.00;99.90
57026;DHT22;43961;52.940;6.834;2024-02-04T09:40:05;8.10;99.90
57026;DHT22;43961;52.940;6.834;2024-02-04T09:42:31;8.10;99.90
57026;DHT22;43961;52.940;6.834;2024-02-04T09:44:58;8.10;99.90
57026;DHT22;43961;52.940;6.834;2024-02-04T09:47:23;8.20;99.90
57026;DHT22;43961;52.940;6.834;2024-02-04T09:49:49;8.20;99.90
57026;DHT22;43961;52.940;6.834;2024-02-04T09:52:18;8.30;99.90
57026;DHT22;43961;52.940;6.834;2024-02-04T09:54:50;8.30;99.90
57026;DHT22;43961;52.940;6.834;2024-02-04T09:57:17;8.30;99.90
57026;DHT22;43961;52.940;6.834;2024-02-04T09:59:47;8.40;99.90
57026;DHT22;43961;52.940;6.834;2024-02-04T10:02:13;8.40;99.90
57026;DHT22;43961;52.940;6.834;2024-02-04T10:04:39;8.40;99.90
57026;DHT22;43961;52.940;6.834;2024-02-04T10:07:04;8.50;99.90
57026;DHT22;43961;52.940;6.834;2024-02-04T10:09:30;8.60;99.90
57026;DHT22;43961;52.940;6.834;2024-02-04T10:11:57;8.60;99.90
57026;DHT22;43961;52.940;6.834;2024-02-04T10:14:22;8.70;99.90
57026;DHT22;43961;52.940;6.834;2024-02-04T10:16:49;8.80;99.90
57026;DHT22;43961;52.940;6.834;2024-02-04T10:19:15;8.80;99.90
57026;DHT22;43961;52.940;6.834;2024-02-04T10:21:41;8.80;99.90
57026;DHT22;43961;52.940;6.834;2024-02-04T10:24:06;8.80;99.90
57026;DHT22;43961;52.940;6.834;2024-02-04T10:26:33;8.90;99.90
57026;DHT22;43961;52.940;6.834;2024-02-04T10:29:03;8.90;99.90
57026;DHT22;43961;52.940;6.834;2024-02-04T10:31:29;8.90;99.90
57026;DHT22;43961;52.940;6.834;2024-02-04T10:33:55;9.00;99.90
57026;DHT22;43961;52.940;6.834;2024-02-04T10:36:21;9.00;99.90
57026;DHT22;43961;52.940;6.834;2024-02-04T10:38:47;9.00;99.90
57026;DHT22;43961;52.940;6.834;2024-02-04T10:41:17;9.00;99.90
57026;DHT22;43961;52.940;6.834;2024-02-04T10:43:44;9.00;99.90
57026;DHT22;43961;52.940;6.834;2024-02-04T10:46:18;9.10;99.90
57026;DHT22;43961;52.940;6.834;2024-02-04T10:48:48;9.10;99.90
57026;DHT22;43961;52.940;6.834;2024-02-04T10:51:17;9.10;99.90
57026;DHT22;43961;52.940;6.834;2024-02-04T10:53:44;9.20;99.90
57026;DHT22;43961;52.940;6.834;2024-02-04T10:56:30;9.20;99.90
57026;DHT22;43961;52.940;6.834;2024-02-04T10:58:56;9.30;99.90
57026;DHT22;43961;52.940;6.834;2024-02-04T11:01:24;9.30;99.90
57026;DHT22;43961;52.940;6.834;2024-02-04T11:03:51;9.30;99.90
57026;DHT22;43961;52.940;6.834;2024-02-04T11:06:20;9.40;99.90
57026;DHT22;43961;52.940;6.834;2024-02-04T11:08:46;9.40;99.90
57026;DHT22;43961;52.940;6.834;2024-02-04T11:11:12;9.50;99.90
57026;DHT22;43961;52.940;6.834;2024-02-04T11:13:40;9.50;99.90
57026;DHT22;43961;52.940;6.834;2024-02-04T11:16:19;9.40;99.90
57026;DHT22;43961;52.940;6.834;2024-02-04T11:27:46;9.40;99.90
57026;DHT22;43961;52.940;6.834;2024-02-04T11:30:11;9.40;99.90
57026;DHT22;43961;52.940;6.834;2024-02-04T11:32:37;9.30;99.90
57026;DHT22;43961;52.940;6.834;2024-02-04T11:35:03;9.40;99.90
57026;DHT22;43961;52.940;6.834;2024-02-04T11:37:33;9.30;99.90
57026;DHT22;43961;52.940;6.834;2024-02-04T11:39:59;9.40;99.90
57026;DHT22;43961;52.940;6.834;2024-02-04T11:42:25;9.40;99.90
57026;DHT22;43961;52.940;6.834;2024-02-04T11:45:09;9.40;99.90
57026;DHT22;43961;52.940;6.834;2024-02-04T11:47:37;9.40;99.90
57026;DHT22;43961;52.940;6.834;2024-02-04T11:50:03;9.40;99.90
57026;DHT22;43961;52.940;6.834;2024-02-04T11:52:29;9.40;99.90
57026;DHT22;43961;52.940;6.834;2024-02-04T11:54:55;9.40;99.90
57026;DHT22;43961;52.940;6.834;2024-02-04T11:57:23;9.40;99.90
57026;DHT22;43961;52.940;6.834;2024-02-04T11:59:49;9.40;99.90
57026;DHT22;43961;52.940;6.834;2024-02-04T12:02:16;9.40;99.90
57026;DHT22;43961;52.940;6.834;2024-02-04T12:04:46;9.50;99.90
57026;DHT22;43961;52.940;6.834;2024-02-04T12:07:16;9.50;99.90
57026;DHT22;43961;52.940;6.834;2024-02-04T12:09:42;9.60;99.90
57026;DHT22;43961;52.940;6.834;2024-02-04T12:12:08;9.60;99.90
57026;DHT22;43961;52.940;6.834;2024-02-04T12:14:39;9.60;99.90
57026;DHT22;43961;52.940;6.834;2024-02-04T12:17:09;9.60;99.90
57026;DHT22;43961;52.940;6.834;2024-02-04T12:19:36;9.60;99.90
57026;DHT22;43961;52.940;6.834;2024-02-04T12:22:01;9.60;99.90
57026;DHT22;43961;52.940;6.834;2024-02-04T12:24:33;9.60;99.90
57026;DHT22;43961;52.940;6.834;2024-02-04T12:26:59;9.60;99.90
57026;DHT22;43961;52.940;6.834;2024-02-04T12:29:25;9.70;99.90
57026;DHT22;43961;52.940;6.834;2024-02-04T12:32:01;9.60;99.90
57026;DHT22;43961;52.940;6.834;2024-02-04T12:34:28;9.60;99.90
57026;DHT22;43961;52.940;6.834;2024-02-04T12:37:01;9.60;99.90
57026;DHT22;43961;52.940;6.834;2024-02-04T12:39:27;9.60;99.90
57026;DHT22;43961;52.940;6.834;2024-02-04T12:41:54;9.60;99.90
57026;DHT22;43961;52.940;6.834;2024-02-04T12:44:19;9.60;99.90
57026;DHT22;43961;52.940;6.834;2024-02-04T12:46:45;9.60;99.90
57026;DHT22;43961;52.940;6.834;2024-02-04T12:49:19;9.50;99.90
57026;DHT22;43961;52.940;6.834;2024-02-04T12:51:45;9.50;99.90
57026;DHT22;43961;52.940;6.834;2024-02-04T12:54:11;9.50;99.90
57026;DHT22;43961;52.940;6.834;2024-02-04T12:56:52;9.50;99.90
57026;DHT22;43961;52.940;6.834;2024-02-04T12:59:31;9.50;99.90
57026;DHT22;43961;52.940;6.834;2024-02-04T13:01:58;9.50;99.90
57026;DHT22;43961;52.940;6.834;2024-02-04T13:04:26;9.50;99.90
57026;DHT22;43961;52.940;6.834;2024-02-04T13:06:52;9.50;99.90
57026;DHT22;43961;52.940;6.834;2024-02-04T13:09:18;9.50;99.90
57026;DHT22;43961;52.940;6.834;2024-02-04T13:11:44;9.50;99.90
57026;DHT22;43961;52.940;6.834;2024-02-04T13:14:10;9.50;99.90
57026;DHT22;43961;52.940;6.834;2024-02-04T13:16:37;9.50;99.90
57026;DHT22;43961;52.940;6.834;2024-02-04T13:19:04;9.40;99.90
57026;DHT22;43961;52.940;6.834;2024-02-04T13:21:30;9.40;99.90
57026;DHT22;43961;52.940;6.834;2024-02-04T13:23:58;9.40;99.90
57026;DHT22;43961;52.940;6.834;2024-02-04T13:26:24;9.40;99.90
57026;DHT22;43961;52.940;6.834;2024-02-04T13:28:50;9.30;99.90
57026;DHT22;43961;52.940;6.834;2024-02-04T13:31:15;9.30;99.90
57026;DHT22;43961;52.940;6.834;2024-02-04T13:33:41;9.30;99.90
57026;DHT22;43961;52.940;6.834;2024-02-04T13:36:10;9.30;99.90
57026;DHT22;43961;52.940;6.834;2024-02-04T13:38:36;9.20;99.90
57026;DHT22;43961;52.940;6.834;2024-02-04T13:41:03;9.20;99.90
57026;DHT22;43961;52.940;6.834;2024-02-04T13:43:31;9.20;99.90
57026;DHT22;43961;52.940;6.834;2024-02-04T13:45:59;9.20;99.90
57026;DHT22;43961;52.940;6.834;2024-02-04T13:48:24;9.20;99.90
57026;DHT22;43961;52.940;6.834;2024-02-04T13:50:51;9.20;99.90
57026;DHT22;43961;52.940;6.834;2024-02-04T13:53:19;9.20;99.90
57026;DHT22;43961;52.940;6.834;2024-02-04T13:55:45;9.20;99.90
57026;DHT22;43961;52.940;6.834;2024-02-04T13:58:11;9.20;99.90
57026;DHT22;43961;52.940;6.834;2024-02-04T14:00:36;9.20;99.90
57026;DHT22;43961;52.940;6.834;2024-02-04T14:03:03;9.20;99.90
57026;DHT22;43961;52.940;6.834;2024-02-04T14:05:28;9.10;99.90
57026;DHT22;43961;52.940;6.834;2024-02-04T14:07:54;9.10;99.90
57026;DHT22;43961;52.940;6.834;2024-02-04T14:10:20;9.10;99.90
57026;DHT22;43961;52.940;6.834;2024-02-04T14:12:46;9.10;99.90
57026;DHT22;43961;52.940;6.834;2024-02-04T14:15:11;9.10;99.90
57026;DHT22;43961;52.940;6.834;2024-02-04T14:17:38;9.00;99.90
57026;DHT22;43961;52.940;6.834;2024-02-04T14:20:05;9.00;99.90
57026;DHT22;43961;52.940;6.834;2024-02-04T14:22:30;9.00;99.90
57026;DHT22;43961;52.940;6.834;2024-02-04T14:24:57;9.00;99.90
57026;DHT22;43961;52.940;6.834;2024-02-04T14:27:23;8.90;99.90
57026;DHT22;43961;52.940;6.834;2024-02-04T14:29:48;8.90;99.90
57026;DHT22;43961;52.940;6.834;2024-02-04T14:32:14;8.90;99.90
57026;DHT22;43961;52.940;6.834;2024-02-04T14:34:40;8.90;99.90
57026;DHT22;43961;52.940;6.834;2024-02-04T14:37:05;8.80;99.90
57026;DHT22;43961;52.940;6.834;2024-02-04T14:39:31;8.80;99.90
57026;DHT22;43961;52.940;6.834;2024-02-04T14:41:57;8.80;99.90
57026;DHT22;43961;52.940;6.834;2024-02-04T14:44:23;8.80;99.90
57026;DHT22;43961;52.940;6.834;2024-02-04T14:46:49;8.80;99.90
57026;DHT22;43961;52.940;6.834;2024-02-04T14:49:15;8.70;99.90
57026;DHT22;43961;52.940;6.834;2024-02-04T14:51:41;8.70;99.90
57026;DHT22;43961;52.940;6.834;2024-02-04T14:54:07;8.70;99.90
57026;DHT22;43961;52.940;6.834;2024-02-04T14:56:40;8.70;99.90
57026;DHT22;43961;52.940;6.834;2024-02-04T14:59:08;8.70;99.90
57026;DHT22;43961;52.940;6.834;2024-02-04T15:01:34;8.70;99.90
57026;DHT22;43961;52.940;6.834;2024-02-04T15:04:00;8.70;99.90
57026;DHT22;43961;52.940;6.834;2024-02-04T15:06:26;8.70;99.90
57026;DHT22;43961;52.940;6.834;2024-02-04T15:08:52;8.70;99.90
57026;DHT22;43961;52.940;6.834;2024-02-04T15:11:18;8.70;99.90
57026;DHT22;43961;52.940;6.834;2024-02-04T15:13:45;8.60;99.90
57026;DHT22;43961;52.940;6.834;2024-02-04T15:16:11;8.70;99.90
57026;DHT22;43961;52.940;6.834;2024-02-04T15:18:38;8.70;99.90
57026;DHT22;43961;52.940;6.834;2024-02-04T15:21:04;8.70;99.90
57026;DHT22;43961;52.940;6.834;2024-02-04T15:23:30;8.70;99.90
57026;DHT22;43961;52.940;6.834;2024-02-04T15:25:57;8.70;99.90
57026;DHT22;43961;52.940;6.834;2024-02-04T15:28:24;8.70;99.90
57026;DHT22;43961;52.940;6.834;2024-02-04T15:30:50;8.70;99.90
57026;DHT22;43961;52.940;6.834;2024-02-04T15:33:16;8.70;99.90
57026;DHT22;43961;52.940;6.834;2024-02-04T15:35:42;8.70;99.90
57026;DHT22;43961;52.940;6.834;2024-02-04T15:38:08;8.70;99.90
57026;DHT22;43961;52.940;6.834;2024-02-04T15:40:33;8.70;99.90
57026;DHT22;43961;52.940;6.834;2024-02-04T15:42:59;8.70;99.90
57026;DHT22;43961;52.940;6.834;2024-02-04T15:45:45;8.70;99.90
57026;DHT22;43961;52.940;6.834;2024-02-04T15:48:18;8.70;99.90
57026;DHT22;43961;52.940;6.834;2024-02-04T15:50:48;8.70;99.90